sensor_id;sensor_type;location;lat;lon;timestamp;pressure;altitude;pressure_sealevel;temperature;humidity
28628;BME280;15815;46.760;19.604;2023-09-19T00:00:49;99926.25;;;23.31;53.79
28628;BME280;15815;46.760;19.604;2023-09-19T00:03:15;99928.91;;;23.35;53.35
28628;BME280;15815;46.760;19.604;2023-09-19T00:05:41;99904.78;;;23.27;53.68
28628;BME280;15815;46.760;19.604;2023-09-19T00:08:07;99922.59;;;23.31;53.72
28628;BME280;15815;46.760;19.604;2023-09-19T00:10:33;99922.88;;;23.33;53.41
28628;BME280;15815;46.760;19.604;2023-09-19T00:12:58;99923.88;;;23.30;53.50
28628;BME280;15815;46.760;19.604;2023-09-19T00:15:25;99932.56;;;23.35;53.71
28628;BME280;15815;46.760;19.604;2023-09-19T00:17:51;99932.06;;;23.37;53.61
28628;BME280;15815;46.760;19.604;2023-09-19T00:20:17;99923.28;;;23.26;53.53
28628;BME280;15815;46.760;19.604;2023-09-19T00:22:43;99934.06;;;23.31;53.56
28628;BME280;15815;46.760;19.604;2023-09-19T00:25:09;99932.06;;;23.37;53.37
28628;BME280;15815;46.760;19.604;2023-09-19T00:27:34;99907.03;;;23.17;53.67
28628;BME280;15815;46.760;19.604;2023-09-19T00:30:00;99914.69;;;23.26;53.29
28628;BME280;15815;46.760;19.604;2023-09-19T00:32:25;99924.69;;;23.30;53.57
28628;BME280;15815;46.760;19.604;2023-09-19T00:34:51;99912.53;;;23.21;53.44
28628;BME280;15815;46.760;19.604;2023-09-19T00:37:16;99909.97;;;23.23;53.58
28628;BME280;15815;46.760;19.604;2023-09-19T00:39:42;99915.75;;;23.28;53.43
28628;BME280;15815;46.760;19.604;2023-09-19T00:42:07;99925.25;;;23.34;53.46
28628;BME280;15815;46.760;19.604;2023-09-19T00:44:32;99924.38;;;23.28;53.67
28628;BME280;15815;46.760;19.604;2023-09-19T00:46:58;99940.38;;;23.35;53.80
28628;BME280;15815;46.760;19.604;2023-09-19T00:49:24;99927.53;;;23.30;53.67
28628;BME280;15815;46.760;19.604;2023-09-19T00:51:49;99934.06;;;23.31;53.64
28628;BME280;15815;46.760;19.604;2023-09-19T00:54:16;99934.06;;;23.31;53.78
28628;BME280;15815;46.760;19.604;2023-09-19T00:56:41;99936.94;;;23.31;53.67
28628;BME280;15815;46.760;19.604;2023-09-19T00:59:07;99925.19;;;23.29;53.68
28628;BME280;15815;46.760;19.604;2023-09-19T01:01:33;99928.75;;;23.24;53.77
28628;BME280;15815;46.760;19.604;2023-09-19T01:03:58;99930.31;;;23.25;53.72
28628;BME280;15815;46.760;19.604;2023-09-19T01:06:27;99915.13;;;23.19;53.63
28628;BME280;15815;46.760;19.604;2023-09-19T01:08:53;99926.16;;;23.26;53.76
28628;BME280;15815;46.760;19.604;2023-09-19T01:11:33;99910.41;;;23.16;54.03
28628;BME280;15815;46.760;19.604;2023-09-19T01:22:16;99925.75;;;23.12;54.30
28628;BME280;15815;46.760;19.604;2023-09-19T01:30:17;99919.50;;;23.14;54.25
28628;BME280;15815;46.760;19.604;2023-09-19T01:32:45;99923.88;;;23.09;54.23
28628;BME280;15815;46.760;19.604;2023-09-19T01:35:11;99916.34;;;23.12;54.16
28628;BME280;15815;46.760;19.604;2023-09-19T01:37:36;99912.41;;;23.09;54.60
28628;BME280;15815;46.760;19.604;2023-09-19T01:42:45;99920.16;;;23.03;54.60
28628;BME280;15815;46.760;19.604;2023-09-19T01:47:52;99917.00;;;23.01;54.81
28628;BME280;15815;46.760;19.604;2023-09-19T01:50:35;99908.09;;;22.99;54.63
28628;BME280;15815;46.760;19.604;2023-09-19T01:53:28;99913.81;;;22.99;55.03
28628;BME280;15815;46.760;19.604;2023-09-19T01:55:56;99906.31;;;23.02;54.92
28628;BME280;15815;46.760;19.604;2023-09-19T01:58:42;99918.06;;;23.04;54.63
28628;BME280;15815;46.760;19.604;2023-09-19T02:01:11;99905.53;;;23.01;54.79
28628;BME280;15815;46.760;19.604;2023-09-19T02:03:38;99914.03;;;22.96;55.00
28628;BME280;15815;46.760;19.604;2023-09-19T02:06:05;99897.47;;;22.85;55.05
28628;BME280;15815;46.760;19.604;2023-09-19T02:08:30;99899.13;;;22.92;55.09
28628;BME280;15815;46.760;19.604;2023-09-19T02:10:56;99895.03;;;22.78;55.37
28628;BME280;15815;46.760;19.604;2023-09-19T02:13:22;99888.00;;;22.79;55.17
28628;BME280;15815;46.760;19.604;2023-09-19T02:15:50;99884.56;;;22.75;55.32
28628;BME280;15815;46.760;19.604;2023-09-19T02:18:16;99888.72;;;22.74;55.68
28628;BME280;15815;46.760;19.604;2023-09-19T02:20:41;99879.31;;;22.73;55.72
28628;BME280;15815;46.760;19.604;2023-09-19T02:23:07;99883.84;;;22.80;55.54
28628;BME280;15815;46.760;19.604;2023-09-19T02:25:33;99880.41;;;22.76;55.68
28628;BME280;15815;46.760;19.604;2023-09-19T02:27:58;99889.00;;;22.76;55.68
28628;BME280;15815;46.760;19.604;2023-09-19T02:30:24;99881.09;;;22.71;55.50
28628;BME280;15815;46.760;19.604;2023-09-19T02:32:50;99884.25;;;22.73;55.73
28628;BME280;15815;46.760;19.604;2023-09-19T02:35:15;99885.84;;;22.74;55.66
28628;BME280;15815;46.760;19.604;2023-09-19T02:37:41;99896.19;;;22.71;55.82
28628;BME280;15815;46.760;19.604;2023-09-19T02:40:07;99897.78;;;22.72;55.89
28628;BME280;15815;46.760;19.604;2023-09-19T02:42:33;99888.59;;;22.68;55.79
28628;BME280;15815;46.760;19.604;2023-09-19T02:44:58;99887.44;;;22.75;55.48
28628;BME280;15815;46.760;19.604;2023-09-19T02:47:24;99881.22;;;22.62;55.71
28628;BME280;15815;46.760;19.604;2023-09-19T02:49:49;99878.38;;;22.62;55.96
28628;BME280;15815;46.760;19.604;2023-09-19T02:52:15;99867.34;;;22.55;56.15
28628;BME280;15815;46.760;19.604;2023-09-19T02:54:40;99860.81;;;22.54;56.25
28628;BME280;15815;46.760;19.604;2023-09-19T02:57:06;99860.81;;;22.54;56.20
28628;BME280;15815;46.760;19.604;2023-09-19T02:59:32;99868.69;;;22.59;56.07
28628;BME280;15815;46.760;19.604;2023-09-19T03:01:58;99875.44;;;22.56;56.32
28628;BME280;15815;46.760;19.604;2023-09-19T03:04:23;99874.63;;;22.56;56.47
28628;BME280;15815;46.760;19.604;2023-09-19T03:06:49;99874.28;;;22.48;56.43
28628;BME280;15815;46.760;19.604;2023-09-19T03:09:14;99866.75;;;22.50;56.59
28628;BME280;15815;46.760;19.604;2023-09-19T03:11:40;99853.25;;;22.36;56.47
28628;BME280;15815;46.760;19.604;2023-09-19T03:14:05;99846.25;;;22.37;56.73
28628;BME280;15815;46.760;19.604;2023-09-19T03:16:31;99862.03;;;22.47;56.67
28628;BME280;15815;46.760;19.604;2023-09-19T03:18:56;99847.81;;;22.38;56.68
28628;BME280;15815;46.760;19.604;2023-09-19T03:21:22;99850.47;;;22.42;56.82
28628;BME280;15815;46.760;19.604;2023-09-19T03:23:47;99841.31;;;22.38;56.85
28628;BME280;15815;46.760;19.604;2023-09-19T03:26:13;99823.97;;;22.27;56.90
28628;BME280;15815;46.760;19.604;2023-09-19T03:28:39;99845.88;;;22.30;57.18
28628;BME280;15815;46.760;19.604;2023-09-19T03:31:05;99834.34;;;22.24;57.40
28628;BME280;15815;46.760;19.604;2023-09-19T03:33:31;99844.78;;;22.27;57.58
28628;BME280;15815;46.760;19.604;2023-09-19T03:35:57;99850.50;;;22.27;57.92
28628;BME280;15815;46.760;19.604;2023-09-19T03:38:22;99848.06;;;22.20;57.55
28628;BME280;15815;46.760;19.604;2023-09-19T03:40:48;99838.09;;;22.15;58.02
28628;BME280;15815;46.760;19.604;2023-09-19T03:43:13;99832.19;;;22.19;57.67
28628;BME280;15815;46.760;19.604;2023-09-19T03:45:39;99843.31;;;22.17;57.95
28628;BME280;15815;46.760;19.604;2023-09-19T03:48:11;99841.94;;;22.12;58.16
28628;BME280;15815;46.760;19.604;2023-09-19T03:50:39;99845.38;;;22.16;58.02
28628;BME280;15815;46.760;19.604;2023-09-19T03:53:05;99839.66;;;22.16;58.26
28628;BME280;15815;46.760;19.604;2023-09-19T03:55:30;99850.16;;;22.19;58.12
28628;BME280;15815;46.760;19.604;2023-09-19T03:57:56;99852.41;;;22.15;58.54
28628;BME280;15815;46.760;19.604;2023-09-19T04:00:22;99829.34;;;22.04;58.13
28628;BME280;15815;46.760;19.604;2023-09-19T04:02:48;99842.16;;;22.09;58.31
28628;BME280;15815;46.760;19.604;2023-09-19T04:05:16;99834.66;;;21.97;58.42
28628;BME280;15815;46.760;19.604;2023-09-19T04:07:42;99860.31;;;22.06;58.60
28628;BME280;15815;46.760;19.604;2023-09-19T04:10:08;99861.88;;;22.07;58.55
28628;BME280;15815;46.760;19.604;2023-09-19T04:12:33;99853.00;;;22.05;58.70
28628;BME280;15815;46.760;19.604;2023-09-19T04:14:59;99846.97;;;21.88;58.96
28628;BME280;15815;46.760;19.604;2023-09-19T04:17:24;99839.09;;;21.83;58.88
28628;BME280;15815;46.760;19.604;2023-09-19T04:19:50;99835.63;;;21.79;58.97
28628;BME280;15815;46.760;19.604;2023-09-19T04:22:15;99848.75;;;21.85;59.07
28628;BME280;15815;46.760;19.604;2023-09-19T04:24:41;99870.34;;;21.86;59.15
28628;BME280;15815;46.760;19.604;2023-09-19T04:27:06;99859.50;;;21.76;59.26
28628;BME280;15815;46.760;19.604;2023-09-19T04:29:32;99848.25;;;21.72;59.32
28628;BME280;15815;46.760;19.604;2023-09-19T04:31:57;99850.63;;;21.88;59.21
28628;BME280;15815;46.760;19.604;2023-09-19T04:34:23;99851.03;;;21.81;59.18
28628;BME280;15815;46.760;19.604;2023-09-19T04:36:48;99849.66;;;21.77;59.50
28628;BME280;15815;46.760;19.604;2023-09-19T04:39:14;99854.28;;;21.74;59.91
28628;BME280;15815;46.760;19.604;2023-09-19T04:41:39;99868.59;;;21.74;59.55
28628;BME280;15815;46.760;19.604;2023-09-19T04:44:05;99860.78;;;21.75;59.32
28628;BME280;15815;46.760;19.604;2023-09-19T04:46:31;99868.59;;;21.74;59.52
28628;BME280;15815;46.760;19.604;2023-09-19T04:48:56;99838.38;;;21.44;60.31
28628;BME280;15815;46.760;19.604;2023-09-19T04:51:22;99863.63;;;21.60;60.26
28628;BME280;15815;46.760;19.604;2023-09-19T04:53:47;99847.94;;;21.55;60.05
28628;BME280;15815;46.760;19.604;2023-09-19T04:56:13;99856.34;;;21.59;60.49
28628;BME280;15815;46.760;19.604;2023-09-19T04:58:38;99867.41;;;21.66;60.11
28628;BME280;15815;46.760;19.604;2023-09-19T05:01:05;99870.38;;;21.72;60.37
28628;BME280;15815;46.760;19.604;2023-09-19T05:03:30;99872.53;;;21.77;60.20
28628;BME280;15815;46.760;19.604;2023-09-19T05:05:56;99878.03;;;21.80;60.13
28628;BME280;15815;46.760;19.604;2023-09-19T05:08:21;99869.16;;;21.78;59.99
28628;BME280;15815;46.760;19.604;2023-09-19T05:10:46;99882.28;;;21.85;60.03
28628;BME280;15815;46.760;19.604;2023-09-19T05:13:12;99883.56;;;21.84;60.28
28628;BME280;15815;46.760;19.604;2023-09-19T05:15:41;99877.25;;;21.80;60.06
28628;BME280;15815;46.760;19.604;2023-09-19T05:18:06;99889.72;;;21.92;60.03
28628;BME280;15815;46.760;19.604;2023-09-19T05:20:32;99882.09;;;21.88;60.08
28628;BME280;15815;46.760;19.604;2023-09-19T05:23:01;99883.66;;;21.89;60.14
28628;BME280;15815;46.760;19.604;2023-09-19T05:25:34;99870.16;;;21.90;59.95
28628;BME280;15815;46.760;19.604;2023-09-19T05:28:00;99879.63;;;21.96;59.75
28628;BME280;15815;46.760;19.604;2023-09-19T05:30:26;99895.03;;;21.99;60.12
28628;BME280;15815;46.760;19.604;2023-09-19T05:32:52;99875.41;;;21.92;60.31
28628;BME280;15815;46.760;19.604;2023-09-19T05:35:17;99873.13;;;21.96;59.95
28628;BME280;15815;46.760;19.604;2023-09-19T05:37:43;99884.00;;;22.06;59.80
28628;BME280;15815;46.760;19.604;2023-09-19T05:40:08;99889.72;;;22.21;59.78
28628;BME280;15815;46.760;19.604;2023-09-19T05:42:34;99860.81;;;22.19;59.36
28628;BME280;15815;46.760;19.604;2023-09-19T05:44:59;99888.69;;;22.39;59.31
28628;BME280;15815;46.760;19.604;2023-09-19T05:47:25;99875.72;;;22.43;59.34
28628;BME280;15815;46.760;19.604;2023-09-19T05:49:50;99895.19;;;22.54;59.17
28628;BME280;15815;46.760;19.604;2023-09-19T05:52:16;99891.13;;;22.46;59.26
28628;BME280;15815;46.760;19.604;2023-09-19T05:54:41;99881.59;;;22.34;59.83
28628;BME280;15815;46.760;19.604;2023-09-19T05:57:07;99909.59;;;22.60;59.23
28628;BME280;15815;46.760;19.604;2023-09-19T05:59:32;99897.69;;;22.67;59.12
28628;BME280;15815;46.760;19.604;2023-09-19T06:01:58;99913.38;;;22.86;59.03
28628;BME280;15815;46.760;19.604;2023-09-19T06:04:23;99910.53;;;23.27;58.14
28628;BME280;15815;46.760;19.604;2023-09-19T06:06:49;99903.09;;;24.07;57.03
28628;BME280;15815;46.760;19.604;2023-09-19T06:09:14;99924.09;;;24.87;56.42
28628;BME280;15815;46.760;19.604;2023-09-19T06:11:43;99906.03;;;25.24;54.71
28628;BME280;15815;46.760;19.604;2023-09-19T06:14:08;99915.06;;;25.60;54.67
28628;BME280;15815;46.760;19.604;2023-09-19T06:16:34;99904.19;;;26.19;54.28
28628;BME280;15815;46.760;19.604;2023-09-19T06:19:00;99910.72;;;26.87;52.31
28628;BME280;15815;46.760;19.604;2023-09-19T06:21:27;99930.16;;;27.56;51.64
28628;BME280;15815;46.760;19.604;2023-09-19T06:23:53;99929.50;;;27.85;50.84
28628;BME280;15815;46.760;19.604;2023-09-19T06:26:19;99927.53;;;27.69;50.45
28628;BME280;15815;46.760;19.604;2023-09-19T06:28:44;99923.84;;;27.63;49.34
28628;BME280;15815;46.760;19.604;2023-09-19T06:31:10;99921.00;;;27.52;49.09
28628;BME280;15815;46.760;19.604;2023-09-19T06:33:36;99941.75;;;28.02;48.49
28628;BME280;15815;46.760;19.604;2023-09-19T06:36:03;99936.19;;;28.46;47.95
28628;BME280;15815;46.760;19.604;2023-09-19T06:38:28;99921.22;;;29.02;48.46
28628;BME280;15815;46.760;19.604;2023-09-19T06:40:54;99943.25;;;29.53;47.31
28628;BME280;15815;46.760;19.604;2023-09-19T06:43:19;99937.81;;;30.06;47.70
28628;BME280;15815;46.760;19.604;2023-09-19T06:45:45;99938.94;;;30.35;47.49
28628;BME280;15815;46.760;19.604;2023-09-19T06:48:10;99942.44;;;30.79;46.73
28628;BME280;15815;46.760;19.604;2023-09-19T06:50:37;99945.56;;;30.17;46.86
28628;BME280;15815;46.760;19.604;2023-09-19T06:53:03;99925.66;;;30.08;46.49
28628;BME280;15815;46.760;19.604;2023-09-19T06:55:31;99937.78;;;29.69;46.95
28628;BME280;15815;46.760;19.604;2023-09-19T06:57:57;99953.47;;;29.36;46.34
28628;BME280;15815;46.760;19.604;2023-09-19T07:00:22;99953.47;;;29.11;47.18
28628;BME280;15815;46.760;19.604;2023-09-19T07:03:14;99954.59;;;28.73;47.67
28628;BME280;15815;46.760;19.604;2023-09-19T07:05:40;99965.59;;;28.80;47.79
28628;BME280;15815;46.760;19.604;2023-09-19T07:08:07;99956.31;;;28.21;48.23
28628;BME280;15815;46.760;19.604;2023-09-19T07:10:33;99961.03;;;28.30;49.24
28628;BME280;15815;46.760;19.604;2023-09-19T07:13:06;99966.31;;;28.26;48.89
28628;BME280;15815;46.760;19.604;2023-09-19T07:15:33;99990.47;;;29.18;49.11
28628;BME280;15815;46.760;19.604;2023-09-19T07:17:58;99986.63;;;29.35;50.84
28628;BME280;15815;46.760;19.604;2023-09-19T07:20:24;99972.41;;;29.12;50.82
28628;BME280;15815;46.760;19.604;2023-09-19T07:22:50;100004.59;;;28.68;50.85
28628;BME280;15815;46.760;19.604;2023-09-19T07:25:16;100025.94;;;28.29;49.70
28628;BME280;15815;46.760;19.604;2023-09-19T07:27:42;100026.22;;;28.14;50.79
28628;BME280;15815;46.760;19.604;2023-09-19T07:30:08;100020.66;;;27.75;51.46
28628;BME280;15815;46.760;19.604;2023-09-19T07:32:34;100040.16;;;27.35;52.20
28628;BME280;15815;46.760;19.604;2023-09-19T07:35:00;100021.06;;;27.10;52.93
28628;BME280;15815;46.760;19.604;2023-09-19T07:37:25;100036.50;;;27.29;54.44
28628;BME280;15815;46.760;19.604;2023-09-19T07:39:51;100019.25;;;27.01;54.73
28628;BME280;15815;46.760;19.604;2023-09-19T07:42:16;100042.31;;;27.01;55.63
28628;BME280;15815;46.760;19.604;2023-09-19T07:44:42;100049.38;;;26.95;55.96
28628;BME280;15815;46.760;19.604;2023-09-19T07:47:07;100036.00;;;26.41;55.44
28628;BME280;15815;46.760;19.604;2023-09-19T07:49:33;100044.78;;;26.04;55.39
28628;BME280;15815;46.760;19.604;2023-09-19T07:51:58;100052.41;;;25.59;55.74
28628;BME280;15815;46.760;19.604;2023-09-19T07:54:27;100064.34;;;25.46;55.89
28628;BME280;15815;46.760;19.604;2023-09-19T07:56:52;100076.34;;;25.39;57.01
28628;BME280;15815;46.760;19.604;2023-09-19T07:59:17;100074.97;;;25.29;56.67
28628;BME280;15815;46.760;19.604;2023-09-19T08:01:43;100083.59;;;25.29;57.54
28628;BME280;15815;46.760;19.604;2023-09-19T08:04:09;100085.81;;;25.08;58.33
28628;BME280;15815;46.760;19.604;2023-09-19T08:06:34;100104.13;;;24.85;58.69
28628;BME280;15815;46.760;19.604;2023-09-19T08:09:00;100107.41;;;24.98;58.17
28628;BME280;15815;46.760;19.604;2023-09-19T08:11:25;100104.03;;;24.74;59.50
28628;BME280;15815;46.760;19.604;2023-09-19T08:13:51;100099.53;;;24.67;58.85
28628;BME280;15815;46.760;19.604;2023-09-19T08:16:16;100110.66;;;24.85;61.34
28628;BME280;15815;46.760;19.604;2023-09-19T08:18:42;100122.91;;;24.80;60.28
28628;BME280;15815;46.760;19.604;2023-09-19T08:21:07;100127.97;;;24.65;61.68
28628;BME280;15815;46.760;19.604;2023-09-19T08:23:33;100124.09;;;24.68;61.36
28628;BME280;15815;46.760;19.604;2023-09-19T08:25:59;100136.03;;;24.61;60.80
28628;BME280;15815;46.760;19.604;2023-09-19T08:28:24;100130.72;;;24.54;60.53
28628;BME280;15815;46.760;19.604;2023-09-19T08:30:50;100146.69;;;24.34;61.09
28628;BME280;15815;46.760;19.604;2023-09-19T08:33:16;100129.19;;;24.12;61.80
28628;BME280;15815;46.760;19.604;2023-09-19T08:35:42;100150.13;;;24.18;62.54
28628;BME280;15815;46.760;19.604;2023-09-19T08:38:08;100149.47;;;24.09;63.90
28628;BME280;15815;46.760;19.604;2023-09-19T08:40:37;100157.16;;;23.97;63.60
28628;BME280;15815;46.760;19.604;2023-09-19T08:43:05;100157.28;;;23.67;63.53
28628;BME280;15815;46.760;19.604;2023-09-19T08:45:31;100180.66;;;23.60;64.33
28628;BME280;15815;46.760;19.604;2023-09-19T08:48:27;100172.53;;;23.44;64.37
28628;BME280;15815;46.760;19.604;2023-09-19T08:51:10;100176.09;;;23.39;64.47
28628;BME280;15815;46.760;19.604;2023-09-19T08:56:32;100175.13;;;23.27;66.07
28628;BME280;15815;46.760;19.604;2023-09-19T08:59:02;100178.88;;;23.33;65.08
28628;BME280;15815;46.760;19.604;2023-09-19T09:01:28;100182.25;;;23.32;65.22
28628;BME280;15815;46.760;19.604;2023-09-19T09:03:59;100159.31;;;23.17;67.02
28628;BME280;15815;46.760;19.604;2023-09-19T09:06:25;100185.78;;;23.27;64.51
28628;BME280;15815;46.760;19.604;2023-09-19T09:08:51;100190.16;;;23.37;66.20
28628;BME280;15815;46.760;19.604;2023-09-19T09:11:20;100192.31;;;23.27;65.37
28628;BME280;15815;46.760;19.604;2023-09-19T09:13:47;100188.94;;;23.43;67.00
28628;BME280;15815;46.760;19.604;2023-09-19T09:16:14;100180.06;;;23.41;64.96
28628;BME280;15815;46.760;19.604;2023-09-19T09:18:40;100173.53;;;23.56;64.39
28628;BME280;15815;46.760;19.604;2023-09-19T09:21:06;100168.75;;;23.53;66.14
28628;BME280;15815;46.760;19.604;2023-09-19T09:23:32;100184.00;;;23.59;64.38
28628;BME280;15815;46.760;19.604;2023-09-19T09:25:58;100169.44;;;23.48;64.76
28628;BME280;15815;46.760;19.604;2023-09-19T09:28:27;100170.38;;;23.39;64.03
28628;BME280;15815;46.760;19.604;2023-09-19T09:30:53;100167.94;;;23.52;64.90
28628;BME280;15815;46.760;19.604;2023-09-19T09:33:18;100168.75;;;23.67;65.12
28628;BME280;15815;46.760;19.604;2023-09-19T09:35:58;100164.25;;;23.81;64.02
28628;BME280;15815;46.760;19.604;2023-09-19T09:38:26;100153.44;;;23.91;65.21
28628;BME280;15815;46.760;19.604;2023-09-19T09:40:52;100142.81;;;24.17;64.92
28628;BME280;15815;46.760;19.604;2023-09-19T09:43:28;100134.66;;;24.30;64.64
28628;BME280;15815;46.760;19.604;2023-09-19T09:46:17;100162.75;;;24.67;62.92
28628;BME280;15815;46.760;19.604;2023-09-19T09:48:42;100167.59;;;24.81;64.51
28628;BME280;15815;46.760;19.604;2023-09-19T09:51:08;100174.25;;;24.93;66.12
28628;BME280;15815;46.760;19.604;2023-09-19T09:53:33;100157.22;;;24.89;64.00
28628;BME280;15815;46.760;19.604;2023-09-19T09:56:05;100183.09;;;25.15;65.22
28628;BME280;15815;46.760;19.604;2023-09-19T09:58:49;100193.16;;;25.00;61.73
28628;BME280;15815;46.760;19.604;2023-09-19T10:01:15;100174.81;;;24.97;63.45
28628;BME280;15815;46.760;19.604;2023-09-19T10:03:41;100183.75;;;24.99;63.51
28628;BME280;15815;46.760;19.604;2023-09-19T10:06:15;100183.28;;;25.06;63.21
28628;BME280;15815;46.760;19.604;2023-09-19T10:09:01;100166.09;;;25.12;63.22
28628;BME280;15815;46.760;19.604;2023-09-19T10:11:27;100182.09;;;25.81;65.31
28628;BME280;15815;46.760;19.604;2023-09-19T10:13:52;100189.78;;;26.49;66.26
28628;BME280;15815;46.760;19.604;2023-09-19T10:16:18;100152.56;;;26.46;62.88
28628;BME280;15815;46.760;19.604;2023-09-19T10:18:47;100164.47;;;26.93;62.01
28628;BME280;15815;46.760;19.604;2023-09-19T10:21:18;100161.31;;;27.86;58.71
28628;BME280;15815;46.760;19.604;2023-09-19T10:23:44;100161.91;;;27.73;60.26
28628;BME280;15815;46.760;19.604;2023-09-19T10:26:10;100171.84;;;27.78;62.39
28628;BME280;15815;46.760;19.604;2023-09-19T10:28:37;100158.16;;;27.89;62.72
28628;BME280;15815;46.760;19.604;2023-09-19T10:31:05;100165.31;;;27.49;57.49
28628;BME280;15815;46.760;19.604;2023-09-19T10:33:35;100161.38;;;27.41;57.28
28628;BME280;15815;46.760;19.604;2023-09-19T10:36:05;100153.50;;;27.64;58.19
28628;BME280;15815;46.760;19.604;2023-09-19T10:38:33;100149.56;;;27.50;55.40
28628;BME280;15815;46.760;19.604;2023-09-19T10:40:59;100140.66;;;27.70;59.83
28628;BME280;15815;46.760;19.604;2023-09-19T10:43:29;100129.06;;;27.76;55.76
28628;BME280;15815;46.760;19.604;2023-09-19T10:45:59;100138.66;;;28.12;54.76
28628;BME280;15815;46.760;19.604;2023-09-19T10:48:28;100139.31;;;28.93;52.33
28628;BME280;15815;46.760;19.604;2023-09-19T10:53:48;100146.66;;;30.89;48.65
28628;BME280;15815;46.760;19.604;2023-09-19T10:56:36;100152.19;;;31.57;47.29
28628;BME280;15815;46.760;19.604;2023-09-19T10:59:14;100148.50;;;31.56;44.89
28628;BME280;15815;46.760;19.604;2023-09-19T11:01:42;100143.41;;;32.28;46.68
28628;BME280;15815;46.760;19.604;2023-09-19T11:07:02;100163.34;;;31.66;42.52
28628;BME280;15815;46.760;19.604;2023-09-19T11:09:50;100160.63;;;32.13;42.69
28628;BME280;15815;46.760;19.604;2023-09-19T11:14:54;100143.28;;;32.21;46.35
28628;BME280;15815;46.760;19.604;2023-09-19T11:30:32;100169.00;;;30.94;43.82
28628;BME280;15815;46.760;19.604;2023-09-19T11:43:45;100164.28;;;30.16;46.82
28628;BME280;15815;46.760;19.604;2023-09-19T11:46:11;100158.47;;;30.35;48.08
28628;BME280;15815;46.760;19.604;2023-09-19T11:48:40;100158.59;;;30.05;44.43
28628;BME280;15815;46.760;19.604;2023-09-19T11:51:11;100164.50;;;29.94;45.10
28628;BME280;15815;46.760;19.604;2023-09-19T11:53:46;100146.63;;;29.90;47.39
28628;BME280;15815;46.760;19.604;2023-09-19T11:56:11;100156.72;;;30.07;48.55
28628;BME280;15815;46.760;19.604;2023-09-19T11:58:37;100152.75;;;29.56;46.53
28628;BME280;15815;46.760;19.604;2023-09-19T12:01:05;100165.91;;;29.57;47.89
28628;BME280;15815;46.760;19.604;2023-09-19T12:03:31;100163.69;;;29.69;47.37
28628;BME280;15815;46.760;19.604;2023-09-19T12:05:58;100163.06;;;29.51;46.22
28628;BME280;15815;46.760;19.604;2023-09-19T12:08:24;100164.84;;;29.60;46.34
28628;BME280;15815;46.760;19.604;2023-09-19T12:10:50;100157.06;;;29.44;47.30
28628;BME280;15815;46.760;19.604;2023-09-19T12:13:19;100145.97;;;29.18;45.86
28628;BME280;15815;46.760;19.604;2023-09-19T12:15:45;100131.22;;;28.86;45.15
28628;BME280;15815;46.760;19.604;2023-09-19T12:18:26;100146.84;;;29.07;44.96
28628;BME280;15815;46.760;19.604;2023-09-19T12:20:52;100147.53;;;29.19;46.20
28628;BME280;15815;46.760;19.604;2023-09-19T12:23:17;100137.81;;;29.16;45.05
28628;BME280;15815;46.760;19.604;2023-09-19T12:25:43;100115.22;;;29.15;43.78
28628;BME280;15815;46.760;19.604;2023-09-19T12:28:09;100143.44;;;29.09;46.65
28628;BME280;15815;46.760;19.604;2023-09-19T12:30:34;100148.22;;;29.31;46.73
28628;BME280;15815;46.760;19.604;2023-09-19T12:33:00;100136.44;;;29.23;45.41
28628;BME280;15815;46.760;19.604;2023-09-19T12:35:32;100148.97;;;29.01;44.39
28628;BME280;15815;46.760;19.604;2023-09-19T12:37:58;100122.28;;;28.84;46.93
28628;BME280;15815;46.760;19.604;2023-09-19T12:40:24;100130.09;;;28.95;44.10
28628;BME280;15815;46.760;19.604;2023-09-19T12:42:50;100144.84;;;28.91;47.34
28628;BME280;15815;46.760;19.604;2023-09-19T12:45:18;100120.53;;;28.70;45.85
28628;BME280;15815;46.760;19.604;2023-09-19T12:53:28;100131.47;;;28.41;45.46
28628;BME280;15815;46.760;19.604;2023-09-19T12:56:00;100147.22;;;28.40;46.42
28628;BME280;15815;46.760;19.604;2023-09-19T12:58:26;100136.25;;;28.33;48.42
28628;BME280;15815;46.760;19.604;2023-09-19T13:00:51;100144.91;;;28.33;45.71
28628;BME280;15815;46.760;19.604;2023-09-19T13:05:59;100150.94;;;28.35;47.22
28628;BME280;15815;46.760;19.604;2023-09-19T13:08:37;100155.72;;;28.27;46.26
28628;BME280;15815;46.760;19.604;2023-09-19T13:11:14;100170.09;;;28.38;48.66
28628;BME280;15815;46.760;19.604;2023-09-19T13:13:45;100179.09;;;28.12;47.56
28628;BME280;15815;46.760;19.604;2023-09-19T13:16:11;100185.75;;;27.79;46.69
28628;BME280;15815;46.760;19.604;2023-09-19T13:18:44;100167.94;;;27.75;48.76
28628;BME280;15815;46.760;19.604;2023-09-19T13:21:14;100168.69;;;27.87;47.86
28628;BME280;15815;46.760;19.604;2023-09-19T13:23:39;100163.69;;;27.98;46.35
28628;BME280;15815;46.760;19.604;2023-09-19T13:26:05;100156.53;;;28.11;47.46
28628;BME280;15815;46.760;19.604;2023-09-19T13:28:30;100162.78;;;28.20;47.05
28628;BME280;15815;46.760;19.604;2023-09-19T13:30:56;100157.56;;;28.24;48.12
28628;BME280;15815;46.760;19.604;2023-09-19T13:33:22;100167.28;;;28.16;48.82
28628;BME280;15815;46.760;19.604;2023-09-19T13:35:47;100164.69;;;28.07;47.56
28628;BME280;15815;46.760;19.604;2023-09-19T13:38:13;100152.13;;;27.98;48.42
28628;BME280;15815;46.760;19.604;2023-09-19T13:40:39;100171.81;;;28.00;47.00
28628;BME280;15815;46.760;19.604;2023-09-19T13:43:05;100161.06;;;27.95;48.45
28628;BME280;15815;46.760;19.604;2023-09-19T13:45:32;100166.31;;;27.91;48.52
28628;BME280;15815;46.760;19.604;2023-09-19T13:47:57;100170.53;;;27.79;46.93